Time;durP1;ratioP1;P1;durP2;ratioP2;P2;SDS_P1;SDS_P2;PMS_P1;PMS_P2;Temp;Humidity;BMP_temperature;BMP_pressure;BME280_temperature;BME280_humidity;BME280_pressure;Samples;Min_cycle;Max_cycle;Signal;HPM_P1;HPM_P2
2021/12/13 00:00:53;;;;;;;2.67;1.70;;;;;;;6.21;59.29;99636.34;3110219;28;20053;-62
2021/12/13 00:02:33;;;;;;;2.38;1.48;;;;;;;6.20;59.46;99637.25;3109778;28;20065;-62
2021/12/13 00:04:09;;;;;;;3.08;1.88;;;;;;;6.17;59.36;99635.59;3110592;28;20789;-62
2021/12/13 00:05:45;;;;;;;2.65;1.52;;;;;;;6.17;59.28;99637.34;3107751;28;20375;-62
2021/12/13 00:07:22;;;;;;;3.40;1.73;;;;;;;6.19;59.31;99649.34;3109670;28;20146;-62
2021/12/13 00:08:57;;;;;;;2.45;1.35;;;;;;;6.20;59.07;99650.19;3109544;28;20049;-62
2021/12/13 00:10:37;;;;;;;2.33;1.35;;;;;;;6.22;58.88;99643.25;3110203;28;20061;-62
2021/12/13 00:12:11;;;;;;;4.05;1.85;;;;;;;6.20;59.02;99652.78;3109717;28;20057;-62
2021/12/13 00:13:47;;;;;;;2.80;1.73;;;;;;;6.19;58.77;99656.25;3108489;28;20058;-62
2021/12/13 00:15:26;;;;;;;3.17;1.60;;;;;;;6.18;58.82;99651.97;3107990;28;20144;-62
2021/12/13 00:17:02;;;;;;;3.38;1.70;;;;;;;5.84;58.54;99603.81;3107491;28;20057;-62
2021/12/13 00:18:38;;;;;;;3.30;1.73;;;;;;;6.18;58.85;99657.13;3108911;28;20190;-62
2021/12/13 00:20:13;;;;;;;2.22;1.48;;;;;;;6.19;58.43;99654.53;3108088;28;20061;-62
2021/12/13 00:21:49;;;;;;;2.85;1.60;;;;;;;6.19;58.44;99654.53;3107408;28;20632;-62
2021/12/13 00:23:25;;;;;;;2.60;1.42;;;;;;;5.87;58.32;99604.56;3109826;28;20067;-62
2021/12/13 00:25:04;;;;;;;4.00;1.70;;;;;;;6.18;57.98;99652.81;3109660;28;20092;-63
2021/12/13 00:26:40;;;;;;;3.05;1.67;;;;;;;6.17;58.28;99660.63;3110261;28;20057;-62
2021/12/13 00:28:17;;;;;;;3.08;1.83;;;;;;;6.17;58.23;99660.63;3108449;28;20053;-61
2021/12/13 00:30:05;;;;;;;3.10;1.92;;;;;;;6.13;58.12;99660.72;3109106;28;20110;-62
2021/12/13 00:31:47;;;;;;;2.50;1.40;;;;;;;6.13;58.17;99655.53;3109292;28;20054;-62
2021/12/13 00:33:32;;;;;;;3.63;1.60;;;;;;;6.14;58.10;99659.81;3108719;28;20049;-62
2021/12/13 00:35:10;;;;;;;2.60;1.38;;;;;;;6.15;58.07;99664.13;3103263;28;20049;-62
2021/12/13 00:36:47;;;;;;;3.03;1.48;;;;;;;6.16;58.16;99662.38;3107335;28;20482;-62
2021/12/13 00:38:22;;;;;;;3.08;1.60;;;;;;;6.16;58.02;99659.78;3109410;28;20149;-63
2021/12/13 00:39:59;;;;;;;2.38;1.45;;;;;;;6.18;57.84;99657.13;3110022;28;20083;-62
2021/12/13 00:41:30;;;;;;;2.78;1.38;;;;;;;6.13;57.98;99665.88;3107685;28;20053;-63
2021/12/13 00:43:08;;;;;;;1.98;1.20;;;;;;;6.12;57.60;99656.44;3109755;28;20148;-63
2021/12/13 00:44:45;;;;;;;2.28;1.45;;;;;;;6.16;57.57;99659.78;3107627;28;20059;-63
2021/12/13 00:46:18;;;;;;;1.95;1.30;;;;;;;6.08;57.59;99647.06;3110810;28;20057;-63
2021/12/13 00:47:51;;;;;;;2.47;1.38;;;;;;;6.11;57.56;99649.56;3108540;28;20653;-63
2021/12/13 00:49:25;;;;;;;3.03;1.52;;;;;;;5.86;57.46;99607.22;3107655;28;20217;-63
2021/12/13 00:51:02;;;;;;;2.10;1.30;;;;;;;6.16;57.33;99652.03;3109577;28;20045;-63
2021/12/13 00:52:37;;;;;;;2.50;1.33;;;;;;;6.17;57.45;99658.03;3107812;28;20115;-63
2021/12/13 00:54:14;;;;;;;2.40;1.42;;;;;;;6.15;57.20;99656.34;3109321;28;20423;-63
2021/12/13 00:55:49;;;;;;;2.67;1.42;;;;;;;6.14;57.33;99646.88;3103883;28;20406;-63
2021/12/13 00:57:40;;;;;;;3.53;1.60;;;;;;;6.12;57.02;99651.28;3108381;28;20227;-63
2021/12/13 00:59:20;;;;;;;2.65;1.30;;;;;;;6.13;57.34;99650.38;3108119;28;20050;-63
2021/12/13 01:00:55;;;;;;;3.38;1.73;;;;;;;6.14;57.13;99661.56;3108680;28;20085;-63
2021/12/13 01:02:29;;;;;;;2.72;1.67;;;;;;;6.13;57.16;99649.53;3108177;28;20533;-63
2021/12/13 01:04:05;;;;;;;1.80;1.20;;;;;;;6.12;57.06;99651.28;3109262;28;20119;-63
2021/12/13 01:06:13;;;;;;;2.67;1.50;;;;;;;6.09;57.20;99656.53;3108650;28;20057;-62
2021/12/13 01:08:20;;;;;;;2.35;1.40;;;;;;;6.05;57.32;99654.06;3072010;28;20561;-63
2021/12/13 01:10:46;;;;;;;2.53;1.35;;;;;;;6.03;57.31;99661.00;3108934;28;20363;-63
2021/12/13 01:12:21;;;;;;;2.15;1.27;;;;;;;6.00;57.62;99651.59;3109263;28;20053;-63
2021/12/13 01:14:07;;;;;;;2.42;1.50;;;;;;;5.96;57.47;99631.91;3109544;28;20830;-63
2021/12/13 01:15:48;;;;;;;3.28;1.40;;;;;;;6.02;57.20;99646.41;3107916;28;20053;-66
2021/12/13 01:17:29;;;;;;;2.35;1.40;;;;;;;6.06;57.27;99650.59;3109421;28;20087;-63
2021/12/13 01:19:26;;;;;;;2.15;1.40;;;;;;;6.04;57.23;99642.06;3104271;28;20050;-63
2021/12/13 01:21:10;;;;;;;2.47;1.33;;;;;;;6.01;57.23;99655.06;3108734;28;20110;-63
2021/12/13 01:22:49;;;;;;;1.98;1.08;;;;;;;6.02;57.21;99660.16;3109299;28;20155;-65
2021/12/13 01:24:52;;;;;;;2.45;1.30;;;;;;;6.03;57.08;99656.69;3108393;28;20063;-63
2021/12/13 01:26:37;;;;;;;2.05;1.27;;;;;;;6.00;57.28;99654.19;3105923;28;20073;-63
2021/12/13 01:28:20;;;;;;;2.08;1.33;;;;;;;6.02;57.21;99655.00;3109737;28;20045;-63
2021/12/13 01:29:51;;;;;;;2.90;1.30;;;;;;;6.01;57.16;99666.25;3107377;28;20128;-62
2021/12/13 01:31:30;;;;;;;2.75;1.50;;;;;;;6.05;56.70;99660.09;3109212;28;20061;-62
2021/12/13 01:33:05;;;;;;;1.88;1.38;;;;;;;6.07;56.90;99666.06;3107830;28;20058;-63
2021/12/13 01:34:38;;;;;;;3.40;1.40;;;;;;;6.07;56.90;99660.06;3108080;28;20042;-64
2021/12/13 01:36:12;;;;;;;3.22;1.20;;;;;;;6.07;56.83;99653.13;3114855;28;20496;-62
2021/12/13 01:37:50;;;;;;;2.10;1.10;;;;;;;6.04;56.87;99645.47;3112982;28;20160;-62
2021/12/13 01:39:25;;;;;;;2.45;1.38;;;;;;;6.05;56.74;99648.91;3110463;28;20279;-60
2021/12/13 01:40:59;;;;;;;2.25;1.17;;;;;;;6.03;56.91;99643.75;3112359;28;20601;-60
2021/12/13 01:42:31;;;;;;;2.10;1.38;;;;;;;6.05;56.75;99646.31;3112052;28;20056;-62
2021/12/13 01:44:08;;;;;;;2.05;1.20;;;;;;;6.06;56.63;99646.28;3112234;28;20058;-60
2021/12/13 01:45:44;;;;;;;1.50;1.10;;;;;;;6.05;56.61;99639.41;3112658;28;20488;-61
2021/12/13 01:47:20;;;;;;;1.63;1.20;;;;;;;6.07;56.80;99644.53;3111492;28;20049;-61
2021/12/13 01:48:53;;;;;;;1.80;1.15;;;;;;;5.80;56.43;99608.22;3112466;28;20056;-61
2021/12/13 01:50:31;;;;;;;1.40;0.95;;;;;;;6.02;56.45;99652.41;3110531;28;20114;-61
2021/12/13 01:52:13;;;;;;;2.75;1.42;;;;;;;5.74;56.44;99610.13;3111662;28;20115;-61
2021/12/13 01:53:49;;;;;;;2.28;1.50;;;;;;;5.57;56.59;99582.19;3110932;28;20577;-61
2021/12/13 01:55:31;;;;;;;2.47;1.48;;;;;;;5.97;56.53;99654.28;3108932;28;20778;-61
2021/12/13 01:57:22;;;;;;;2.28;1.40;;;;;;;5.77;56.85;99620.38;3112579;28;20060;-61
2021/12/13 01:59:03;;;;;;;3.00;1.13;;;;;;;5.89;57.01;99633.81;3110963;28;20053;-60
2021/12/13 02:01:09;;;;;;;2.78;1.00;;;;;;;5.94;56.54;99644.03;3111903;28;20091;-61
2021/12/13 02:02:40;;;;;;;1.70;1.10;;;;;;;5.89;56.82;99645.88;3108382;28;20071;-62
2021/12/13 02:04:15;;;;;;;2.22;1.35;;;;;;;5.95;56.78;99647.50;3112240;28;20081;-62
2021/12/13 02:05:49;;;;;;;2.22;1.13;;;;;;;5.96;56.75;99652.59;3107636;28;20569;-61
2021/12/13 02:07:25;;;;;;;1.90;1.27;;;;;;;5.99;56.70;99644.75;3110428;28;20059;-62
2021/12/13 02:09:01;;;;;;;2.95;1.42;;;;;;;6.00;56.69;99641.25;3110977;28;20161;-62
2021/12/13 02:10:37;;;;;;;1.73;1.08;;;;;;;5.99;56.46;99639.59;3109020;28;20053;-62
2021/12/13 02:12:13;;;;;;;1.35;0.90;;;;;;;6.00;56.37;99638.69;3110875;28;20071;-61
2021/12/13 02:14:04;;;;;;;2.88;1.17;;;;;;;5.97;56.55;99641.34;3111228;28;20487;-61
2021/12/13 02:17:33;;;;;;;1.90;1.02;;;;;;;5.89;56.67;99641.56;3110550;28;20041;-61
2021/12/13 02:19:04;;;;;;;1.70;1.20;;;;;;;5.94;56.51;99649.19;3108977;28;20060;-61
2021/12/13 02:20:43;;;;;;;1.55;1.10;;;;;;;5.97;56.56;99637.94;3110913;28;20153;-61
2021/12/13 02:22:38;;;;;;;2.65;1.35;;;;;;;5.86;56.46;99625.31;3109173;28;20056;-62
2021/12/13 02:24:13;;;;;;;2.47;1.42;;;;;;;5.89;56.73;99625.22;3110662;28;20186;-62
2021/12/13 02:25:48;;;;;;;1.65;1.10;;;;;;;5.91;56.80;99638.91;3108734;28;20123;-63
2021/12/13 02:27:22;;;;;;;2.13;1.27;;;;;;;5.93;56.55;99637.19;3110735;28;20130;-62
2021/12/13 02:29:02;;;;;;;2.30;1.33;;;;;;;5.95;56.64;99635.41;3110251;28;20052;-62
2021/12/13 02:30:38;;;;;;;2.10;1.13;;;;;;;5.92;56.51;99644.06;3111268;28;20634;-62
2021/12/13 02:32:11;;;;;;;1.83;1.10;;;;;;;5.93;56.60;99643.19;3111398;28;20053;-62
2021/12/13 02:33:49;;;;;;;1.92;1.13;;;;;;;5.91;56.52;99642.34;3109264;28;20168;-62
2021/12/13 02:35:24;;;;;;;1.50;1.02;;;;;;;5.42;56.38;99560.25;3110136;28;20085;-62
2021/12/13 02:36:56;;;;;;;3.42;1.13;;;;;;;5.88;56.57;99634.69;3110899;28;20266;-63
2021/12/13 02:38:30;;;;;;;2.30;1.13;;;;;;;5.89;56.59;99645.88;3110867;28;20057;-63
2021/12/13 02:40:05;;;;;;;2.20;1.17;;;;;;;5.88;56.49;99650.19;3111217;28;20057;-63
2021/12/13 02:41:38;;;;;;;2.08;1.08;;;;;;;5.87;56.73;99645.91;3110201;28;20056;-62
2021/12/13 02:43:13;;;;;;;1.90;1.27;;;;;;;5.86;56.54;99646.81;3110732;28;20138;-62
2021/12/13 02:44:51;;;;;;;1.92;1.30;;;;;;;5.86;56.47;99652.00;3110007;28;20063;-63
2021/12/13 02:46:23;;;;;;;2.67;1.20;;;;;;;5.84;56.67;99646.00;3110031;28;20818;-63
2021/12/13 02:48:02;;;;;;;1.47;0.97;;;;;;;5.86;56.51;99658.91;3110010;28;20525;-63
2021/12/13 02:49:35;;;;;;;2.33;1.40;;;;;;;5.83;56.71;99658.97;3109558;28;20343;-62
2021/12/13 02:51:11;;;;;;;1.60;1.10;;;;;;;5.85;56.64;99655.44;3110528;28;20590;-63
2021/12/13 02:52:44;;;;;;;2.03;1.10;;;;;;;5.85;56.53;99663.19;3110839;28;20145;-62
2021/12/13 02:54:21;;;;;;;1.63;1.20;;;;;;;5.83;56.52;99664.16;3110353;28;20304;-63
2021/12/13 02:55:52;;;;;;;2.47;1.20;;;;;;;5.81;56.61;99663.34;3110109;28;20079;-62
2021/12/13 02:57:29;;;;;;;2.55;1.40;;;;;;;5.85;56.65;99658.03;3111037;28;20547;-62
2021/12/13 02:59:05;;;;;;;1.70;0.98;;;;;;;5.56;56.89;99617.53;3107676;28;20051;-63
2021/12/13 03:00:42;;;;;;;1.90;1.00;;;;;;;5.84;56.66;99660.66;3110957;28;20057;-62
2021/12/13 03:02:18;;;;;;;1.83;1.02;;;;;;;5.84;56.61;99653.75;3110760;28;20183;-62
2021/12/13 03:03:55;;;;;;;3.22;1.00;;;;;;;5.87;56.77;99666.59;3111834;28;20049;-63
2021/12/13 03:05:30;;;;;;;1.58;0.90;;;;;;;5.87;56.86;99661.44;3110142;28;20053;-61
2021/12/13 03:07:08;;;;;;;1.90;0.95;;;;;;;5.88;56.45;99665.69;3110364;28;20053;-61
2021/12/13 03:08:44;;;;;;;2.10;1.02;;;;;;;5.89;56.57;99653.66;3108032;28;20052;-62
2021/12/13 03:10:21;;;;;;;1.27;0.80;;;;;;;5.90;56.37;99660.50;3109791;28;20696;-61
2021/12/13 03:11:55;;;;;;;1.52;0.88;;;;;;;5.86;56.54;99652.00;3105127;28;20045;-62
2021/12/13 03:13:30;;;;;;;1.55;1.00;;;;;;;5.87;56.36;99648.50;3110250;28;20136;-62
2021/12/13 03:15:07;;;;;;;2.53;0.90;;;;;;;5.88;56.30;99649.34;3111236;28;20084;-63
2021/12/13 03:16:47;;;;;;;1.35;0.70;;;;;;;5.87;56.17;99652.81;3110246;28;20128;-63
2021/12/13 03:18:23;;;;;;;1.20;0.80;;;;;;;5.83;56.03;99661.56;3111617;28;20454;-63
2021/12/13 03:20:11;;;;;;;1.48;0.70;;;;;;;5.80;56.01;99657.34;3111022;28;20124;-63
2021/12/13 03:22:22;;;;;;;1.85;0.98;;;;;;;5.77;56.41;99659.13;3110680;28;20085;-62
2021/12/13 03:24:09;;;;;;;1.30;0.80;;;;;;;5.73;56.54;99662.69;3108114;28;20111;-63
2021/12/13 03:26:04;;;;;;;1.45;0.70;;;;;;;5.75;56.52;99664.34;3110396;28;20677;-63
2021/12/13 03:28:12;;;;;;;1.25;0.75;;;;;;;5.75;56.55;99663.50;3107262;28;20103;-62
2021/12/13 03:29:58;;;;;;;1.85;0.82;;;;;;;5.73;56.57;99660.13;3104406;28;20136;-63
2021/12/13 03:31:37;;;;;;;1.35;0.73;;;;;;;5.74;56.57;99661.78;3109618;28;20053;-62
2021/12/13 03:33:12;;;;;;;1.60;0.90;;;;;;;5.79;56.42;99663.38;3109561;28;20600;-63
2021/12/13 03:35:09;;;;;;;2.65;0.85;;;;;;;5.82;56.25;99662.44;3102776;28;20053;-62
2021/12/13 03:37:02;;;;;;;1.92;0.90;;;;;;;5.78;56.49;99660.84;3108913;28;20045;-64
2021/12/13 03:38:39;;;;;;;4.43;0.75;;;;;;;5.75;56.48;99646.25;3110796;28;20053;-62
2021/12/13 03:40:14;;;;;;;1.20;0.70;;;;;;;5.84;56.52;99660.66;3109284;28;20115;-62
2021/12/13 03:41:51;;;;;;;1.80;0.82;;;;;;;5.85;56.35;99663.19;3111195;28;20395;-62
2021/12/13 03:43:29;;;;;;;1.77;0.65;;;;;;;5.86;56.38;99677.00;3110591;28;20063;-62
2021/12/13 03:45:11;;;;;;;1.42;0.60;;;;;;;5.81;56.20;99668.50;3109683;28;20050;-62
2021/12/13 03:46:46;;;;;;;1.98;1.25;;;;;;;5.82;56.40;99683.13;3110445;28;20122;-62
2021/12/13 03:48:21;;;;;;;2.13;1.00;;;;;;;5.85;56.41;99686.44;3110123;28;20156;-62
2021/12/13 03:49:59;;;;;;;1.58;0.95;;;;;;;5.86;56.35;99687.31;3110087;28;20087;-62
2021/12/13 03:51:36;;;;;;;2.05;1.35;;;;;;;5.86;56.52;99680.41;3108390;28;20060;-62
2021/12/13 03:53:13;;;;;;;2.97;1.60;;;;;;;5.88;56.45;99683.78;3110452;28;20595;-62
2021/12/13 03:54:47;;;;;;;1.98;0.90;;;;;;;5.88;56.38;99691.53;3110015;28;20057;-62
2021/12/13 03:56:23;;;;;;;2.75;1.08;;;;;;;5.39;56.06;99601.63;3109992;28;20465;-62
2021/12/13 03:58:00;;;;;;;1.75;0.90;;;;;;;5.91;56.31;99690.59;3110985;28;20514;-63
2021/12/13 03:59:34;;;;;;;1.63;0.77;;;;;;;5.88;56.31;99691.53;3109566;28;20598;-63
2021/12/13 04:01:09;;;;;;;1.90;1.20;;;;;;;5.88;56.14;99691.53;3110243;28;20049;-63
2021/12/13 04:02:42;;;;;;;1.67;0.98;;;;;;;5.83;56.36;99692.59;3110348;28;20213;-62
2021/12/13 04:04:17;;;;;;;3.67;2.45;;;;;;;5.83;56.41;99690.00;3109878;28;20051;-63
2021/12/13 04:05:50;;;;;;;3.10;1.20;;;;;;;5.26;56.46;99603.69;3110052;28;20045;-63
2021/12/13 04:07:25;;;;;;;2.20;0.90;;;;;;;5.83;56.51;99696.00;3108927;28;20053;-63
2021/12/13 04:08:59;;;;;;;3.10;1.20;;;;;;;5.80;56.77;99688.34;3109235;28;20057;-62
2021/12/13 04:10:34;;;;;;;3.85;1.63;;;;;;;5.79;56.73;99690.94;3109071;28;20110;-63
2021/12/13 04:12:07;;;;;;;2.42;1.30;;;;;;;5.78;56.74;99691.84;3109741;28;20119;-62
2021/12/13 04:13:44;;;;;;;2.38;1.40;;;;;;;5.76;56.87;99697.03;3110294;28;20065;-63
2021/12/13 04:15:22;;;;;;;3.88;1.60;;;;;;;5.71;57.21;99686.00;3108259;28;20050;-62
2021/12/13 04:17:06;;;;;;;2.30;1.30;;;;;;;5.77;57.09;99703.06;3105966;28;20540;-62
2021/12/13 04:19:06;;;;;;;2.72;1.35;;;;;;;5.76;57.30;99698.78;3108796;28;20609;-63
2021/12/13 04:20:37;;;;;;;2.00;1.23;;;;;;;5.74;57.43;99708.31;3110133;28;20546;-62
2021/12/13 04:22:11;;;;;;;1.73;1.00;;;;;;;5.78;57.28;99707.34;3110062;28;20080;-62
2021/12/13 04:23:50;;;;;;;2.42;1.30;;;;;;;5.82;57.13;99701.19;3108843;28;20137;-62
2021/12/13 04:25:26;;;;;;;4.95;2.70;;;;;;;5.81;57.42;99707.28;3106857;28;20053;-62
2021/12/13 04:27:02;;;;;;;3.97;1.70;;;;;;;5.83;57.33;99703.75;3108005;28;20477;-63
2021/12/13 04:28:39;;;;;;;2.38;1.38;;;;;;;5.82;57.34;99702.03;3108658;28;20049;-62
2021/12/13 04:30:20;;;;;;;2.35;1.27;;;;;;;5.84;57.29;99707.19;3110038;28;20084;-62
2021/12/13 04:31:52;;;;;;;1.73;1.10;;;;;;;5.75;57.38;99694.53;3109427;28;20049;-62
2021/12/13 04:33:27;;;;;;;2.08;0.85;;;;;;;5.85;57.35;99696.78;3108697;28;20621;-62
2021/12/13 04:35:03;;;;;;;2.10;0.80;;;;;;;5.87;57.18;99699.34;3107781;28;20057;-62
2021/12/13 04:36:39;;;;;;;1.38;0.95;;;;;;;5.87;57.41;99699.34;3110560;28;20060;-62
2021/12/13 04:38:11;;;;;;;2.38;1.40;;;;;;;5.88;57.39;99701.03;3107704;28;20110;-62
2021/12/13 04:39:46;;;;;;;2.28;1.02;;;;;;;5.87;57.13;99695.03;3109162;28;20569;-61
2021/12/13 04:41:23;;;;;;;2.33;0.90;;;;;;;5.89;57.25;99703.59;3109784;28;20124;-62
2021/12/13 04:43:00;;;;;;;1.90;1.10;;;;;;;5.59;57.06;99661.34;3108667;28;20053;-62
2021/12/13 04:44:35;;;;;;;2.55;1.25;;;;;;;5.69;57.29;99670.53;3105414;28;20049;-62
2021/12/13 04:46:12;;;;;;;4.22;1.50;;;;;;;5.86;56.92;99698.50;3107901;28;20049;-62
2021/12/13 04:47:54;;;;;;;2.38;1.60;;;;;;;5.88;57.14;99701.88;3110094;28;20057;-62
2021/12/13 04:49:27;;;;;;;4.35;1.38;;;;;;;5.85;57.24;99699.38;3103566;28;20536;-62
2021/12/13 04:51:06;;;;;;;2.25;1.15;;;;;;;5.85;57.12;99704.53;3108972;28;20466;-62
2021/12/13 04:52:39;;;;;;;2.00;1.35;;;;;;;5.81;57.33;99705.53;3109662;28;20053;-62
2021/12/13 04:54:13;;;;;;;1.92;1.02;;;;;;;5.79;57.26;99701.28;3109440;28;20442;-63
2021/12/13 04:55:45;;;;;;;2.35;1.45;;;;;;;5.76;57.30;99698.78;3108352;28;20119;-62
2021/12/13 04:57:19;;;;;;;3.15;1.33;;;;;;;5.78;57.32;99700.44;3109219;28;20209;-62
2021/12/13 04:58:53;;;;;;;2.40;1.30;;;;;;;5.78;57.43;99699.59;3109282;28;20131;-62
2021/12/13 05:00:28;;;;;;;3.83;1.42;;;;;;;5.81;57.46;99700.38;3109944;28;20061;-62
2021/12/13 05:02:06;;;;;;;2.03;1.08;;;;;;;5.81;57.46;99691.75;3108112;28;20130;-62
2021/12/13 05:03:41;;;;;;;2.78;1.63;;;;;;;5.79;57.58;99702.13;3105303;28;20119;-62
2021/12/13 05:05:15;;;;;;;2.17;1.20;;;;;;;5.77;57.70;99703.06;3109311;28;20102;-62
2021/12/13 05:06:50;;;;;;;2.67;1.13;;;;;;;5.74;57.91;99697.97;3110296;28;20115;-62
2021/12/13 05:08:23;;;;;;;1.60;1.10;;;;;;;5.18;57.82;99621.97;3109979;28;20111;-61
2021/12/13 05:09:55;;;;;;;2.05;1.10;;;;;;;5.68;58.01;99706.75;3110646;28;20053;-62
2021/12/13 05:11:30;;;;;;;2.03;1.17;;;;;;;5.71;58.15;99711.84;3111498;28;20053;-62
2021/12/13 05:13:07;;;;;;;1.67;1.05;;;;;;;5.71;58.36;99724.75;3111460;28;20115;-62
2021/12/13 05:14:42;;;;;;;3.17;1.38;;;;;;;5.73;58.48;99727.28;3110919;28;20566;-62
2021/12/13 05:16:26;;;;;;;2.05;1.20;;;;;;;5.74;58.59;99724.69;3111529;28;20119;-62
2021/12/13 05:18:01;;;;;;;2.03;1.30;;;;;;;5.71;58.71;99724.75;3111544;28;20045;-63
2021/12/13 05:19:36;;;;;;;2.83;1.13;;;;;;;5.74;58.93;99723.81;3112003;28;20620;-62
2021/12/13 05:21:12;;;;;;;2.80;1.60;;;;;;;5.71;59.23;99719.59;3110452;28;20049;-62
2021/12/13 05:22:48;;;;;;;2.80;1.38;;;;;;;5.70;59.29;99726.47;3110849;28;20493;-63
2021/12/13 05:24:25;;;;;;;2.80;1.95;;;;;;;5.72;59.48;99723.03;3110559;28;20160;-63
2021/12/13 05:26:00;;;;;;;2.78;1.50;;;;;;;5.69;59.90;99727.38;3111924;28;20852;-62
2021/12/13 05:27:35;;;;;;;2.75;1.50;;;;;;;5.67;60.06;99728.31;3112865;28;20053;-62
2021/12/13 05:29:21;;;;;;;2.85;1.60;;;;;;;5.66;60.27;99736.94;3110077;28;20049;-61
2021/12/13 05:30:57;;;;;;;3.10;1.73;;;;;;;5.63;60.51;99739.63;3111043;28;20106;-61
2021/12/13 05:32:39;;;;;;;3.15;1.45;;;;;;;5.40;60.73;99693.72;3109741;28;20052;-64
2021/12/13 05:34:12;;;;;;;3.53;1.95;;;;;;;5.58;61.29;99731.97;3115604;28;20149;-63
2021/12/13 05:35:48;;;;;;;3.92;1.90;;;;;;;5.56;61.32;99733.75;3118279;28;20060;-62
2021/12/13 05:37:21;;;;;;;6.15;2.45;;;;;;;5.56;61.63;99741.50;3119703;28;20644;-63
2021/12/13 05:39:10;;;;;;;4.55;2.42;;;;;;;5.51;61.86;99740.78;3121350;28;20053;-62
2021/12/13 05:40:45;;;;;;;4.97;3.10;;;;;;;5.52;62.29;99745.03;3119738;28;20045;-62
2021/12/13 05:42:17;;;;;;;3.92;2.53;;;;;;;5.51;62.44;99747.69;3120876;28;20581;-62
2021/12/13 05:43:53;;;;;;;5.90;2.40;;;;;;;5.49;62.71;99747.69;3119283;28;20052;-63
2021/12/13 05:45:34;;;;;;;4.85;2.33;;;;;;;5.45;62.83;99751.25;3119745;28;20046;-62
2021/12/13 05:47:17;;;;;;;3.75;2.08;;;;;;;5.43;63.25;99742.69;3119769;28;20060;-62
2021/12/13 05:48:51;;;;;;;4.03;2.30;;;;;;;5.38;63.58;99748.00;3119733;28;20410;-62
2021/12/13 05:50:33;;;;;;;4.97;2.53;;;;;;;5.39;63.59;99748.84;3121250;28;20053;-63
2021/12/13 05:52:09;;;;;;;4.60;2.88;;;;;;;5.35;63.88;99752.34;3117868;28;20061;-63
2021/12/13 05:53:53;;;;;;;3.08;2.10;;;;;;;5.29;63.94;99752.50;3119867;28;20049;-63
2021/12/13 05:55:25;;;;;;;3.58;2.10;;;;;;;5.23;64.23;99756.09;3118001;28;20118;-63
2021/12/13 05:57:00;;;;;;;4.20;2.17;;;;;;;5.24;64.40;99758.66;3119595;28;20185;-62
2021/12/13 05:58:37;;;;;;;4.15;2.22;;;;;;;5.24;64.53;99750.91;3120984;28;20126;-62
2021/12/13 06:00:14;;;;;;;2.42;1.88;;;;;;;5.20;64.62;99754.41;3117841;28;20126;-61
2021/12/13 06:02:02;;;;;;;4.53;1.88;;;;;;;4.86;64.80;99713.09;3120659;28;20103;-61
2021/12/13 06:03:36;;;;;;;4.30;2.67;;;;;;;5.11;65.32;99762.38;3119686;28;20050;-61
2021/12/13 06:05:15;;;;;;;4.97;2.97;;;;;;;5.10;65.50;99768.44;3120056;28;20123;-61
2021/12/13 06:06:51;;;;;;;4.63;2.70;;;;;;;5.11;65.79;99769.28;3119349;28;20136;-62
2021/12/13 06:08:30;;;;;;;4.00;2.83;;;;;;;5.12;65.80;99773.59;3119231;28;20045;-62
2021/12/13 06:10:07;;;;;;;4.68;3.05;;;;;;;5.07;66.11;99771.09;3118739;28;20053;-62
2021/12/13 06:11:44;;;;;;;7.60;4.93;;;;;;;5.09;66.07;99773.63;3115548;28;20045;-62
2021/12/13 06:13:35;;;;;;;7.35;3.75;;;;;;;5.05;66.46;99775.44;3120364;28;20037;-62
2021/12/13 06:15:27;;;;;;;5.18;2.88;;;;;;;4.97;66.54;99767.88;3117844;28;20072;-62
2021/12/13 06:17:06;;;;;;;4.22;2.25;;;;;;;4.95;66.94;99771.38;3119482;28;20045;-62
2021/12/13 06:18:44;;;;;;;4.60;2.33;;;;;;;4.94;67.14;99769.66;3119129;28;20049;-62
2021/12/13 06:20:22;;;;;;;5.72;2.60;;;;;;;4.92;67.39;99769.72;3118541;28;20045;-62
2021/12/13 06:22:05;;;;;;;4.13;3.05;;;;;;;4.88;67.48;99768.09;3119278;28;20287;-62
2021/12/13 06:23:39;;;;;;;5.45;2.55;;;;;;;4.86;67.87;99762.13;3118158;28;20053;-62
2021/12/13 06:25:15;;;;;;;4.72;2.67;;;;;;;4.87;67.95;99775.84;3119310;28;20081;-61
2021/12/13 06:26:47;;;;;;;6.60;2.97;;;;;;;4.85;67.98;99770.75;3119373;28;20449;-62
2021/12/13 06:28:22;;;;;;;6.85;2.75;;;;;;;4.87;67.97;99775.84;3119854;28;20045;-62
2021/12/13 06:30:07;;;;;;;5.43;2.65;;;;;;;4.85;67.88;99780.19;3120171;28;20057;-62
2021/12/13 06:31:41;;;;;;;11.10;2.40;;;;;;;4.82;68.35;99780.25;3118273;28;20123;-62
2021/12/13 06:33:13;;;;;;;4.15;2.42;;;;;;;4.76;68.56;99776.97;3118286;28;20175;-62
2021/12/13 06:34:45;;;;;;;3.95;2.33;;;;;;;4.75;68.64;99782.13;3115940;28;20817;-64
2021/12/13 06:36:26;;;;;;;4.38;2.58;;;;;;;4.74;68.74;99788.19;3119126;28;20050;-64
2021/12/13 06:38:20;;;;;;;4.22;2.85;;;;;;;4.67;68.95;99776.28;3118093;28;20650;-63
2021/12/13 06:39:52;;;;;;;4.75;2.25;;;;;;;4.64;69.41;99795.25;3117868;28;20053;-63
2021/12/13 06:41:42;;;;;;;5.53;2.58;;;;;;;4.66;69.45;99792.66;3119523;28;20061;-64
2021/12/13 06:43:27;;;;;;;4.13;2.50;;;;;;;4.62;69.72;99788.47;3117974;28;20060;-63
2021/12/13 06:44:59;;;;;;;4.88;2.55;;;;;;;4.59;70.12;99791.09;3119532;28;20045;-64
2021/12/13 06:46:42;;;;;;;6.18;3.22;;;;;;;4.62;70.30;99791.88;3117098;28;20049;-63
2021/12/13 06:48:14;;;;;;;5.95;3.33;;;;;;;4.64;70.81;99789.25;3119782;28;20442;-63
2021/12/13 06:49:53;;;;;;;5.75;3.03;;;;;;;4.68;70.80;99802.06;3119681;28;20155;-62
2021/12/13 06:51:39;;;;;;;6.35;3.30;;;;;;;4.70;70.81;99807.19;3118328;28;20141;-63
2021/12/13 06:53:16;;;;;;;9.77;5.00;;;;;;;4.70;70.92;99802.91;3119578;28;20079;-62
2021/12/13 06:54:59;;;;;;;16.17;5.97;;;;;;;4.73;71.00;99804.53;3117972;28;20041;-63
2021/12/13 06:56:34;;;;;;;8.98;4.57;;;;;;;4.70;71.07;99805.47;3120608;28;20050;-62
2021/12/13 06:58:15;;;;;;;6.50;3.40;;;;;;;4.73;70.90;99805.41;3114147;28;20071;-63
2021/12/13 06:59:52;;;;;;;6.50;3.72;;;;;;;4.73;70.96;99809.69;3119657;28;20053;-63
2021/12/13 07:01:24;;;;;;;8.02;3.78;;;;;;;4.73;71.05;99804.53;3112195;28;20052;-63
2021/12/13 07:02:58;;;;;;;6.20;3.35;;;;;;;4.78;70.91;99810.44;3119259;28;20049;-63
2021/12/13 07:04:47;;;;;;;5.88;3.20;;;;;;;4.78;70.80;99811.28;3120448;28;20111;-63
2021/12/13 07:06:20;;;;;;;6.13;3.22;;;;;;;4.64;70.92;99804.72;3117780;28;20519;-63
2021/12/13 07:07:59;;;;;;;7.13;3.80;;;;;;;4.67;70.83;99814.97;3119768;28;20111;-63
2021/12/13 07:09:32;;;;;;;11.23;6.10;;;;;;;4.66;70.87;99821.88;3118016;28;20076;-63
2021/12/13 07:11:07;;;;;;;6.57;3.47;;;;;;;4.63;70.96;99829.69;3118827;28;20158;-63
2021/12/13 07:12:45;;;;;;;5.95;3.22;;;;;;;4.62;71.48;99815.09;3119508;28;20049;-66
2021/12/13 07:14:21;;;;;;;7.68;4.25;;;;;;;4.58;71.28;99821.19;3117085;28;20050;-63
2021/12/13 07:15:59;;;;;;;5.53;3.10;;;;;;;4.60;71.20;99823.75;3118771;28;20052;-63
2021/12/13 07:17:35;;;;;;;8.30;3.47;;;;;;;4.57;71.56;99829.81;3116322;28;20077;-63
2021/12/13 07:19:18;;;;;;;7.90;4.10;;;;;;;4.63;71.55;99840.00;3117786;28;20053;-62
2021/12/13 07:20:56;;;;;;;9.05;3.63;;;;;;;4.62;71.77;99842.63;3114292;28;20052;-62
2021/12/13 07:22:30;;;;;;;5.85;3.20;;;;;;;4.60;71.68;99839.22;3116453;28;20506;-63
2021/12/13 07:24:08;;;;;;;8.23;4.18;;;;;;;4.64;71.76;99844.25;3117659;28;20053;-63
2021/12/13 07:25:44;;;;;;;8.25;4.25;;;;;;;4.64;72.07;99848.56;3117661;28;20139;-62
2021/12/13 07:27:18;;;;;;;5.57;3.63;;;;;;;4.63;72.11;99850.31;3118269;28;20054;-60
2021/12/13 07:28:53;;;;;;;6.38;3.20;;;;;;;4.11;72.13;99771.41;3117266;28;20064;-62
2021/12/13 07:30:28;;;;;;;6.40;3.63;;;;;;;4.60;72.45;99857.25;3118480;28;20180;-63
2021/12/13 07:32:07;;;;;;;7.35;3.60;;;;;;;4.60;72.23;99852.94;3116952;28;20057;-64
2021/12/13 07:33:42;;;;;;;6.22;3.83;;;;;;;4.57;72.50;99855.59;3117625;28;20053;-64
2021/12/13 07:35:17;;;;;;;12.38;6.60;;;;;;;4.60;72.59;99860.69;3117781;28;20540;-64
2021/12/13 07:36:54;;;;;;;12.82;7.32;;;;;;;4.60;72.63;99868.44;3117638;28;20056;-65
2021/12/13 07:38:26;;;;;;;11.75;6.78;;;;;;;4.58;72.65;99865.03;3118508;28;20053;-64
2021/12/13 07:40:14;;;;;;;9.88;6.20;;;;;;;4.58;72.55;99872.75;3118200;28;20197;-61
2021/12/13 07:41:52;;;;;;;8.20;4.72;;;;;;;4.59;72.86;99871.06;3112780;28;20049;-61
2021/12/13 07:43:26;;;;;;;8.13;5.35;;;;;;;4.61;72.97;99882.16;3107395;28;20053;-62
2021/12/13 07:44:58;;;;;;;9.38;5.15;;;;;;;4.62;72.80;99878.72;3108040;28;20441;-61
2021/12/13 07:46:33;;;;;;;7.82;4.35;;;;;;;4.65;72.89;99881.25;3109176;28;20566;-61
2021/12/13 07:48:10;;;;;;;7.05;4.00;;;;;;;4.66;72.86;99870.03;3106551;28;20202;-62
2021/12/13 07:49:45;;;;;;;12.15;5.28;;;;;;;4.66;72.98;99880.34;3108715;28;20136;-62